sensor_id;sensor_type;location;lat;lon;timestamp;pressure;altitude;pressure_sealevel;temperature;humidity
30554;BME280;17335;50.720;7.452;2023-06-22T00:02:26;99532.41;;;18.92;100.00
30554;BME280;17335;50.720;7.452;2023-06-22T00:04:52;99537.47;;;18.80;100.00
30554;BME280;17335;50.720;7.452;2023-06-22T00:07:19;99545.22;;;18.62;100.00
30554;BME280;17335;50.720;7.452;2023-06-22T00:09:46;99536.25;;;18.46;100.00
30554;BME280;17335;50.720;7.452;2023-06-22T00:12:12;99545.28;;;18.47;100.00
30554;BME280;17335;50.720;7.452;2023-06-22T00:14:39;99543.09;;;18.57;100.00
30554;BME280;17335;50.720;7.452;2023-06-22T00:17:05;99537.94;;;18.62;100.00
30554;BME280;17335;50.720;7.452;2023-06-22T00:19:32;99532.56;;;18.69;100.00
30554;BME280;17335;50.720;7.452;2023-06-22T00:22:01;99535.13;;;18.77;100.00
30554;BME280;17335;50.720;7.452;2023-06-22T00:24:29;99544.63;;;18.81;100.00
30554;BME280;17335;50.720;7.452;2023-06-22T00:26:56;99539.66;;;18.85;100.00
30554;BME280;17335;50.720;7.452;2023-06-22T00:29:22;99540.16;;;18.95;100.00
30554;BME280;17335;50.720;7.452;2023-06-22T00:31:51;99540.38;;;18.93;100.00
30554;BME280;17335;50.720;7.452;2023-06-22T00:34:17;99531.63;;;18.98;100.00
30554;BME280;17335;50.720;7.452;2023-06-22T00:36:44;99540.44;;;19.00;100.00
30554;BME280;17335;50.720;7.452;2023-06-22T00:39:10;99529.34;;;19.02;100.00
30554;BME280;17335;50.720;7.452;2023-06-22T00:41:38;99536.28;;;19.04;100.00
30554;BME280;17335;50.720;7.452;2023-06-22T00:44:04;99543.41;;;19.05;100.00
30554;BME280;17335;50.720;7.452;2023-06-22T00:46:31;99551.19;;;19.08;100.00
30554;BME280;17335;50.720;7.452;2023-06-22T00:48:59;99548.47;;;19.08;100.00
30554;BME280;17335;50.720;7.452;2023-06-22T00:51:26;99552.84;;;19.09;100.00
30554;BME280;17335;50.720;7.452;2023-06-22T00:53:52;99550.13;;;19.09;100.00
30554;BME280;17335;50.720;7.452;2023-06-22T00:56:20;99547.41;;;19.09;100.00
30554;BME280;17335;50.720;7.452;2023-06-22T00:58:51;99560.13;;;19.02;100.00
30554;BME280;17335;50.720;7.452;2023-06-22T01:01:19;99556.19;;;19.05;100.00
30554;BME280;17335;50.720;7.452;2023-06-22T01:03:50;99556.19;;;19.05;100.00
30554;BME280;17335;50.720;7.452;2023-06-22T01:06:31;99549.69;;;19.06;100.00
30554;BME280;17335;50.720;7.452;2023-06-22T01:09:27;99543.16;;;19.00;100.00
30554;BME280;17335;50.720;7.452;2023-06-22T01:12:00;99533.94;;;19.01;100.00
30554;BME280;17335;50.720;7.452;2023-06-22T01:16:57;99549.22;;;19.02;100.00
30554;BME280;17335;50.720;7.452;2023-06-22T01:19:45;99550.75;;;19.05;100.00
30554;BME280;17335;50.720;7.452;2023-06-22T01:22:30;99545.31;;;19.05;100.00
30554;BME280;17335;50.720;7.452;2023-06-22T01:25:13;99535.44;;;19.04;100.00
30554;BME280;17335;50.720;7.452;2023-06-22T01:30:49;99543.03;;;19.08;100.00
30554;BME280;17335;50.720;7.452;2023-06-22T01:33:27;99548.84;;;19.05;100.00
30554;BME280;17335;50.720;7.452;2023-06-22T01:35:54;99551.19;;;19.08;100.00
30554;BME280;17335;50.720;7.452;2023-06-22T01:38:20;99541.72;;;19.04;100.00
30554;BME280;17335;50.720;7.452;2023-06-22T01:40:49;99533.56;;;19.04;100.00
30554;BME280;17335;50.720;7.452;2023-06-22T01:43:17;99537.59;;;19.08;100.00
30554;BME280;17335;50.720;7.452;2023-06-22T01:45:44;99535.50;;;19.10;100.00
30554;BME280;17335;50.720;7.452;2023-06-22T01:48:11;99527.16;;;19.12;100.00
30554;BME280;17335;50.720;7.452;2023-06-22T01:50:37;99521.91;;;19.10;100.00
30554;BME280;17335;50.720;7.452;2023-06-22T01:53:04;99527.53;;;19.09;100.00
30554;BME280;17335;50.720;7.452;2023-06-22T01:55:33;99524.81;;;19.09;100.00
30554;BME280;17335;50.720;7.452;2023-06-22T01:57:59;99523.78;;;19.10;100.00
30554;BME280;17335;50.720;7.452;2023-06-22T02:00:28;99522.91;;;19.09;100.00
30554;BME280;17335;50.720;7.452;2023-06-22T02:03:12;99519.56;;;19.07;100.00
30554;BME280;17335;50.720;7.452;2023-06-22T02:05:47;99518.91;;;19.05;100.00
30554;BME280;17335;50.720;7.452;2023-06-22T02:08:20;99518.91;;;19.05;100.00
30554;BME280;17335;50.720;7.452;2023-06-22T02:10:48;99524.09;;;19.00;100.00
30554;BME280;17335;50.720;7.452;2023-06-22T02:13:15;99526.56;;;18.95;100.00
30554;BME280;17335;50.720;7.452;2023-06-22T02:15:43;99526.94;;;18.92;100.00
30554;BME280;17335;50.720;7.452;2023-06-22T02:18:10;99528.66;;;18.93;100.00
30554;BME280;17335;50.720;7.452;2023-06-22T02:20:38;99533.22;;;18.92;100.00
30554;BME280;17335;50.720;7.452;2023-06-22T02:23:06;99543.91;;;18.94;100.00
30554;BME280;17335;50.720;7.452;2023-06-22T02:25:33;99540.16;;;18.95;100.00
30554;BME280;17335;50.720;7.452;2023-06-22T02:28:01;99528.22;;;18.96;100.00
30554;BME280;17335;50.720;7.452;2023-06-22T02:30:27;99531.63;;;18.98;100.00
30554;BME280;17335;50.720;7.452;2023-06-22T02:32:54;99524.94;;;19.01;100.00
30554;BME280;17335;50.720;7.452;2023-06-22T02:35:29;99522.41;;;18.99;100.00
30554;BME280;17335;50.720;7.452;2023-06-22T02:37:59;99515.94;;;19.00;100.00
30554;BME280;17335;50.720;7.452;2023-06-22T02:40:27;99510.31;;;19.02;100.00
30554;BME280;17335;50.720;7.452;2023-06-22T02:42:55;99505.69;;;19.02;100.00
30554;BME280;17335;50.720;7.452;2023-06-22T02:45:21;99508.03;;;19.05;100.00
30554;BME280;17335;50.720;7.452;2023-06-22T02:47:48;99504.50;;;19.05;100.00
30554;BME280;17335;50.720;7.452;2023-06-22T02:50:15;99507.41;;;19.03;100.00
30554;BME280;17335;50.720;7.452;2023-06-22T02:52:41;99499.44;;;19.02;100.00
30554;BME280;17335;50.720;7.452;2023-06-22T02:55:08;99501.53;;;19.06;100.00
30554;BME280;17335;50.720;7.452;2023-06-22T02:57:35;99492.53;;;19.06;100.00
30554;BME280;17335;50.720;7.452;2023-06-22T03:00:03;99485.69;;;19.10;100.00
30554;BME280;17335;50.720;7.452;2023-06-22T03:02:46;99482.72;;;19.05;100.00
30554;BME280;17335;50.720;7.452;2023-06-22T03:05:14;99495.66;;;19.03;100.00
30554;BME280;17335;50.720;7.452;2023-06-22T03:07:41;99489.38;;;19.02;100.00
30554;BME280;17335;50.720;7.452;2023-06-22T03:10:12;99489.78;;;18.99;100.00
30554;BME280;17335;50.720;7.452;2023-06-22T03:12:40;99481.91;;;19.11;100.00
30554;BME280;17335;50.720;7.452;2023-06-22T03:15:08;99481.22;;;19.02;100.00
30554;BME280;17335;50.720;7.452;2023-06-22T03:17:36;99481.84;;;19.04;100.00
30554;BME280;17335;50.720;7.452;2023-06-22T03:20:05;99472.91;;;19.10;100.00
30554;BME280;17335;50.720;7.452;2023-06-22T03:22:41;99471.88;;;19.11;100.00
30554;BME280;17335;50.720;7.452;2023-06-22T03:25:09;99477.56;;;19.17;100.00
30554;BME280;17335;50.720;7.452;2023-06-22T03:27:42;99490.13;;;19.18;100.00
30554;BME280;17335;50.720;7.452;2023-06-22T03:30:11;99488.75;;;19.28;100.00
30554;BME280;17335;50.720;7.452;2023-06-22T03:32:38;99488.94;;;19.27;100.00
30554;BME280;17335;50.720;7.452;2023-06-22T03:35:05;99482.47;;;19.28;100.00
30554;BME280;17335;50.720;7.452;2023-06-22T03:37:32;99466.19;;;19.35;100.00
30554;BME280;17335;50.720;7.452;2023-06-22T03:39:58;99461.19;;;19.38;100.00
30554;BME280;17335;50.720;7.452;2023-06-22T03:42:26;99454.97;;;19.44;100.00
30554;BME280;17335;50.720;7.452;2023-06-22T03:44:52;99458.06;;;19.41;100.00
30554;BME280;17335;50.720;7.452;2023-06-22T03:47:19;99449.47;;;19.38;100.00
30554;BME280;17335;50.720;7.452;2023-06-22T03:49:45;99457.81;;;19.36;100.00
30554;BME280;17335;50.720;7.452;2023-06-22T03:52:12;99454.00;;;19.30;100.00
30554;BME280;17335;50.720;7.452;2023-06-22T03:54:39;99454.41;;;19.27;100.00
30554;BME280;17335;50.720;7.452;2023-06-22T03:57:05;99466.13;;;19.28;100.00
30554;BME280;17335;50.720;7.452;2023-06-22T03:59:32;99462.59;;;19.27;100.00
30554;BME280;17335;50.720;7.452;2023-06-22T04:01:58;99473.66;;;19.26;100.00
30554;BME280;17335;50.720;7.452;2023-06-22T04:04:25;99479.09;;;19.26;100.00
30554;BME280;17335;50.720;7.452;2023-06-22T04:06:52;99482.66;;;19.26;100.00
30554;BME280;17335;50.720;7.452;2023-06-22T04:09:18;99492.72;;;19.26;100.00
30554;BME280;17335;50.720;7.452;2023-06-22T04:11:45;99486.22;;;19.27;100.00
30554;BME280;17335;50.720;7.452;2023-06-22T04:14:11;99482.47;;;19.28;100.00
30554;BME280;17335;50.720;7.452;2023-06-22T04:16:38;99487.91;;;19.28;100.00
30554;BME280;17335;50.720;7.452;2023-06-22T04:19:05;99501.13;;;19.31;100.00
30554;BME280;17335;50.720;7.452;2023-06-22T04:21:31;99497.34;;;19.32;100.00
30554;BME280;17335;50.720;7.452;2023-06-22T04:23:58;99494.50;;;19.40;100.00
30554;BME280;17335;50.720;7.452;2023-06-22T04:26:24;99494.09;;;19.43;100.00
30554;BME280;17335;50.720;7.452;2023-06-22T04:28:51;99488.47;;;19.45;100.00
30554;BME280;17335;50.720;7.452;2023-06-22T04:31:21;99486.81;;;19.51;100.00
30554;BME280;17335;50.720;7.452;2023-06-22T04:33:48;99483.22;;;19.43;100.00
30554;BME280;17335;50.720;7.452;2023-06-22T04:36:17;99480.38;;;19.58;100.00
30554;BME280;17335;50.720;7.452;2023-06-22T04:38:44;99477.28;;;19.68;100.00
30554;BME280;17335;50.720;7.452;2023-06-22T04:41:11;99486.81;;;19.79;100.00
30554;BME280;17335;50.720;7.452;2023-06-22T04:43:40;99487.06;;;19.91;100.00
30554;BME280;17335;50.720;7.452;2023-06-22T04:46:07;99473.47;;;19.97;100.00
30554;BME280;17335;50.720;7.452;2023-06-22T04:48:33;99471.41;;;20.06;100.00
30554;BME280;17335;50.720;7.452;2023-06-22T04:51:01;99470.22;;;20.15;100.00
30554;BME280;17335;50.720;7.452;2023-06-22T04:53:31;99467.72;;;20.20;100.00
30554;BME280;17335;50.720;7.452;2023-06-22T04:55:58;99458.50;;;20.28;100.00
30554;BME280;17335;50.720;7.452;2023-06-22T04:58:25;99459.97;;;20.31;100.00
30554;BME280;17335;50.720;7.452;2023-06-22T05:00:54;99454.50;;;20.24;100.00
30554;BME280;17335;50.720;7.452;2023-06-22T05:03:25;99450.50;;;20.20;100.00
30554;BME280;17335;50.720;7.452;2023-06-22T05:05:53;99453.44;;;20.18;100.00
30554;BME280;17335;50.720;7.452;2023-06-22T05:08:20;99447.44;;;20.43;100.00
30554;BME280;17335;50.720;7.452;2023-06-22T05:10:47;99434.41;;;21.65;100.00
30554;BME280;17335;50.720;7.452;2023-06-22T05:13:30;99401.59;;;22.17;100.00
30554;BME280;17335;50.720;7.452;2023-06-22T05:15:57;99388.94;;;23.05;100.00
30554;BME280;17335;50.720;7.452;2023-06-22T05:18:29;99362.53;;;23.36;100.00
30554;BME280;17335;50.720;7.452;2023-06-22T05:20:58;99370.16;;;22.90;100.00
30554;BME280;17335;50.720;7.452;2023-06-22T05:23:25;99372.72;;;22.85;100.00
30554;BME280;17335;50.720;7.452;2023-06-22T05:25:51;99375.28;;;23.49;100.00
30554;BME280;17335;50.720;7.452;2023-06-22T05:28:18;99373.13;;;24.18;100.00
30554;BME280;17335;50.720;7.452;2023-06-22T05:30:49;99350.91;;;24.50;100.00
30554;BME280;17335;50.720;7.452;2023-06-22T05:33:15;99343.19;;;24.59;100.00
30554;BME280;17335;50.720;7.452;2023-06-22T05:35:42;99338.06;;;24.62;100.00
30554;BME280;17335;50.720;7.452;2023-06-22T05:38:08;99342.09;;;24.60;100.00
30554;BME280;17335;50.720;7.452;2023-06-22T05:40:35;99336.78;;;24.23;100.00
30554;BME280;17335;50.720;7.452;2023-06-22T05:43:01;99348.84;;;23.91;100.00
30554;BME280;17335;50.720;7.452;2023-06-22T05:45:28;99348.97;;;23.78;100.00
30554;BME280;17335;50.720;7.452;2023-06-22T05:47:54;99358.69;;;24.11;100.00
30554;BME280;17335;50.720;7.452;2023-06-22T05:50:21;99354.81;;;24.42;100.00
30554;BME280;17335;50.720;7.452;2023-06-22T05:52:48;99340.34;;;25.01;100.00
30554;BME280;17335;50.720;7.452;2023-06-22T05:55:14;99337.47;;;25.07;100.00
30554;BME280;17335;50.720;7.452;2023-06-22T05:57:41;99337.34;;;24.79;100.00
30554;BME280;17335;50.720;7.452;2023-06-22T06:00:08;99343.03;;;24.53;100.00
30554;BME280;17335;50.720;7.452;2023-06-22T06:02:37;99346.31;;;24.32;100.00
30554;BME280;17335;50.720;7.452;2023-06-22T06:05:11;99359.31;;;23.94;100.00
30554;BME280;17335;50.720;7.452;2023-06-22T06:07:41;99363.16;;;23.93;100.00
30554;BME280;17335;50.720;7.452;2023-06-22T06:10:09;99365.13;;;23.68;100.00
30554;BME280;17335;50.720;7.452;2023-06-22T06:12:36;99375.78;;;23.57;100.00
30554;BME280;17335;50.720;7.452;2023-06-22T06:15:03;99375.78;;;23.57;100.00
30554;BME280;17335;50.720;7.452;2023-06-22T06:17:30;99372.75;;;23.66;100.00
30554;BME280;17335;50.720;7.452;2023-06-22T06:19:58;99374.63;;;23.65;100.00
30554;BME280;17335;50.720;7.452;2023-06-22T06:22:25;99365.44;;;23.59;100.00
30554;BME280;17335;50.720;7.452;2023-06-22T06:24:52;99369.50;;;23.57;100.00
30554;BME280;17335;50.720;7.452;2023-06-22T06:27:18;99386.59;;;23.71;100.00
30554;BME280;17335;50.720;7.452;2023-06-22T06:29:45;99385.91;;;23.94;100.00
30554;BME280;17335;50.720;7.452;2023-06-22T06:32:14;99379.13;;;23.96;100.00
30554;BME280;17335;50.720;7.452;2023-06-22T06:34:41;99384.00;;;24.25;100.00
30554;BME280;17335;50.720;7.452;2023-06-22T06:37:09;99378.84;;;24.17;100.00
30554;BME280;17335;50.720;7.452;2023-06-22T06:39:36;99370.63;;;23.86;100.00
30554;BME280;17335;50.720;7.452;2023-06-22T06:42:03;99377.31;;;23.90;100.00
30554;BME280;17335;50.720;7.452;2023-06-22T06:44:31;99382.28;;;23.82;100.00
30554;BME280;17335;50.720;7.452;2023-06-22T06:46:57;99371.75;;;23.60;100.00
30554;BME280;17335;50.720;7.452;2023-06-22T06:49:24;99380.53;;;23.50;100.00
30554;BME280;17335;50.720;7.452;2023-06-22T06:51:50;99381.94;;;23.53;100.00
30554;BME280;17335;50.720;7.452;2023-06-22T06:54:18;99380.28;;;23.33;100.00
30554;BME280;17335;50.720;7.452;2023-06-22T06:56:47;99380.97;;;23.29;100.00
30554;BME280;17335;50.720;7.452;2023-06-22T06:59:14;99387.75;;;23.26;100.00
30554;BME280;17335;50.720;7.452;2023-06-22T07:01:42;99386.75;;;23.39;100.00
30554;BME280;17335;50.720;7.452;2023-06-22T07:04:10;99388.34;;;23.28;100.00
30554;BME280;17335;50.720;7.452;2023-06-22T07:06:37;99383.75;;;23.22;100.00
30554;BME280;17335;50.720;7.452;2023-06-22T07:09:03;99376.25;;;23.17;100.00
30554;BME280;17335;50.720;7.452;2023-06-22T07:11:30;99372.44;;;23.18;100.00
30554;BME280;17335;50.720;7.452;2023-06-22T07:13:56;99373.88;;;23.39;100.00
30554;BME280;17335;50.720;7.452;2023-06-22T07:16:24;99370.00;;;23.66;100.00
30554;BME280;17335;50.720;7.452;2023-06-22T07:18:51;99368.84;;;23.92;100.00
30554;BME280;17335;50.720;7.452;2023-06-22T07:21:18;99356.34;;;23.96;100.00
30554;BME280;17335;50.720;7.452;2023-06-22T07:23:44;99362.06;;;23.94;100.00
30554;BME280;17335;50.720;7.452;2023-06-22T07:26:11;99364.78;;;23.94;100.00
30554;BME280;17335;50.720;7.452;2023-06-22T07:28:39;99362.31;;;23.74;100.00
30554;BME280;17335;50.720;7.452;2023-06-22T07:31:07;99362.31;;;23.74;100.00
30554;BME280;17335;50.720;7.452;2023-06-22T07:33:33;99350.69;;;23.61;100.00
30554;BME280;17335;50.720;7.452;2023-06-22T07:36:00;99343.50;;;23.59;100.00
30554;BME280;17335;50.720;7.452;2023-06-22T07:38:27;99336.31;;;23.77;100.00
30554;BME280;17335;50.720;7.452;2023-06-22T07:40:53;99332.69;;;23.83;100.00
30554;BME280;17335;50.720;7.452;2023-06-22T07:43:20;99336.72;;;24.11;100.00
30554;BME280;17335;50.720;7.452;2023-06-22T07:45:49;99332.56;;;24.20;100.00
30554;BME280;17335;50.720;7.452;2023-06-22T07:48:21;99322.09;;;24.29;100.00
30554;BME280;17335;50.720;7.452;2023-06-22T07:50:49;99336.84;;;24.58;100.00
30554;BME280;17335;50.720;7.452;2023-06-22T07:53:15;99310.63;;;24.86;100.00
30554;BME280;17335;50.720;7.452;2023-06-22T07:55:42;99311.28;;;25.17;100.00
30554;BME280;17335;50.720;7.452;2023-06-22T07:58:08;99306.25;;;25.37;100.00
30554;BME280;17335;50.720;7.452;2023-06-22T08:00:35;99299.00;;;25.43;100.00
30554;BME280;17335;50.720;7.452;2023-06-22T08:03:02;99298.00;;;25.49;100.00
30554;BME280;17335;50.720;7.452;2023-06-22T08:05:30;99296.53;;;25.58;100.00
30554;BME280;17335;50.720;7.452;2023-06-22T08:07:56;99295.94;;;25.85;100.00
30554;BME280;17335;50.720;7.452;2023-06-22T08:10:23;99291.50;;;25.96;100.00
30554;BME280;17335;50.720;7.452;2023-06-22T08:12:50;99280.72;;;25.66;100.00
30554;BME280;17335;50.720;7.452;2023-06-22T08:15:18;99274.22;;;25.55;100.00
30554;BME280;17335;50.720;7.452;2023-06-22T08:17:45;99269.44;;;25.79;100.00
30554;BME280;17335;50.720;7.452;2023-06-22T08:20:14;99270.53;;;26.24;100.00
30554;BME280;17335;50.720;7.452;2023-06-22T08:22:42;99258.91;;;26.55;100.00
30554;BME280;17335;50.720;7.452;2023-06-22T08:25:09;99249.19;;;26.31;100.00
30554;BME280;17335;50.720;7.452;2023-06-22T08:27:36;99248.69;;;26.17;100.00
30554;BME280;17335;50.720;7.452;2023-06-22T08:30:03;99245.47;;;25.91;100.00
30554;BME280;17335;50.720;7.452;2023-06-22T08:32:30;99244.38;;;25.92;100.00
30554;BME280;17335;50.720;7.452;2023-06-22T08:34:59;99244.25;;;26.16;100.00
30554;BME280;17335;50.720;7.452;2023-06-22T08:37:25;99243.03;;;26.24;100.00
30554;BME280;17335;50.720;7.452;2023-06-22T08:39:58;99240.59;;;26.44;100.00
30554;BME280;17335;50.720;7.452;2023-06-22T08:42:25;99233.34;;;26.38;100.00
30554;BME280;17335;50.720;7.452;2023-06-22T08:44:52;99228.00;;;26.31;100.00
30554;BME280;17335;50.720;7.452;2023-06-22T08:47:19;99227.09;;;26.09;100.00
30554;BME280;17335;50.720;7.452;2023-06-22T08:49:47;99230.97;;;25.96;100.00
30554;BME280;17335;50.720;7.452;2023-06-22T08:52:14;99241.84;;;25.91;100.00
30554;BME280;17335;50.720;7.452;2023-06-22T08:54:41;99235.25;;;26.20;100.00
30554;BME280;17335;50.720;7.452;2023-06-22T08:57:07;99221.34;;;26.27;100.00
30554;BME280;17335;50.720;7.452;2023-06-22T08:59:34;99218.66;;;26.15;100.00
30554;BME280;17335;50.720;7.452;2023-06-22T09:02:00;99214.25;;;26.14;100.00
30554;BME280;17335;50.720;7.452;2023-06-22T09:04:27;99216.66;;;26.28;100.00
30554;BME280;17335;50.720;7.452;2023-06-22T09:06:54;99208.97;;;26.30;100.00
30554;BME280;17335;50.720;7.452;2023-06-22T09:09:21;99208.56;;;26.38;100.00
30554;BME280;17335;50.720;7.452;2023-06-22T09:11:47;99198.22;;;26.45;100.00
30554;BME280;17335;50.720;7.452;2023-06-22T09:14:14;99202.88;;;26.45;100.00
30554;BME280;17335;50.720;7.452;2023-06-22T09:16:41;99194.31;;;26.41;100.00
30554;BME280;17335;50.720;7.452;2023-06-22T09:19:07;99196.31;;;26.29;100.00
30554;BME280;17335;50.720;7.452;2023-06-22T09:21:34;99183.72;;;26.33;100.00
30554;BME280;17335;50.720;7.452;2023-06-22T09:24:02;99187.13;;;26.40;100.00
30554;BME280;17335;50.720;7.452;2023-06-22T09:26:28;99181.63;;;26.40;100.00
30554;BME280;17335;50.720;7.452;2023-06-22T09:28:55;99169.59;;;26.46;100.00
30554;BME280;17335;50.720;7.452;2023-06-22T09:31:21;99161.78;;;26.77;100.00
30554;BME280;17335;50.720;7.452;2023-06-22T09:33:53;99144.66;;;26.75;100.00
30554;BME280;17335;50.720;7.452;2023-06-22T09:36:21;99135.47;;;26.86;100.00
30554;BME280;17335;50.720;7.452;2023-06-22T09:38:48;99126.19;;;26.92;100.00
30554;BME280;17335;50.720;7.452;2023-06-22T09:41:14;99125.53;;;26.85;100.00
30554;BME280;17335;50.720;7.452;2023-06-22T09:43:42;99122.25;;;26.88;100.00
30554;BME280;17335;50.720;7.452;2023-06-22T09:46:10;99117.84;;;26.87;100.00
30554;BME280;17335;50.720;7.452;2023-06-22T09:48:36;99116.81;;;26.71;100.00
30554;BME280;17335;50.720;7.452;2023-06-22T09:51:06;99117.50;;;26.62;100.00
30554;BME280;17335;50.720;7.452;2023-06-22T09:53:32;99120.44;;;26.72;100.00
30554;BME280;17335;50.720;7.452;2023-06-22T09:56:01;99121.25;;;26.72;100.00
30554;BME280;17335;50.720;7.452;2023-06-22T09:58:28;99129.81;;;26.76;100.00
30554;BME280;17335;50.720;7.452;2023-06-22T10:00:55;99133.03;;;26.90;100.00
30554;BME280;17335;50.720;7.452;2023-06-22T10:03:21;99128.38;;;26.51;100.00
30554;BME280;17335;50.720;7.452;2023-06-22T10:05:49;99127.53;;;26.29;100.00
30554;BME280;17335;50.720;7.452;2023-06-22T10:08:16;99145.22;;;26.16;100.00
30554;BME280;17335;50.720;7.452;2023-06-22T10:10:42;99138.31;;;25.96;100.00
30554;BME280;17335;50.720;7.452;2023-06-22T10:13:09;99151.97;;;25.91;100.00
30554;BME280;17335;50.720;7.452;2023-06-22T10:15:37;99154.91;;;26.01;100.00
30554;BME280;17335;50.720;7.452;2023-06-22T10:18:04;99151.31;;;25.84;100.00
30554;BME280;17335;50.720;7.452;2023-06-22T10:20:31;99143.63;;;25.69;100.00
30554;BME280;17335;50.720;7.452;2023-06-22T10:22:57;99139.63;;;25.60;100.00
30554;BME280;17335;50.720;7.452;2023-06-22T10:25:26;99138.59;;;25.49;100.00
30554;BME280;17335;50.720;7.452;2023-06-22T10:27:54;99134.16;;;25.31;100.00
30554;BME280;17335;50.720;7.452;2023-06-22T10:30:20;99152.59;;;25.19;100.00
30554;BME280;17335;50.720;7.452;2023-06-22T10:32:47;99164.16;;;25.21;100.00
30554;BME280;17335;50.720;7.452;2023-06-22T10:35:14;99214.09;;;25.18;100.00
30554;BME280;17335;50.720;7.452;2023-06-22T10:37:46;99249.81;;;25.06;100.00
30554;BME280;17335;50.720;7.452;2023-06-22T10:40:14;99258.69;;;24.96;100.00
30554;BME280;17335;50.720;7.452;2023-06-22T10:42:41;99255.56;;;24.93;100.00
30554;BME280;17335;50.720;7.452;2023-06-22T10:45:08;99264.53;;;25.00;100.00
30554;BME280;17335;50.720;7.452;2023-06-22T10:47:35;99266.16;;;25.13;100.00
30554;BME280;17335;50.720;7.452;2023-06-22T10:50:03;99263.06;;;25.21;100.00
30554;BME280;17335;50.720;7.452;2023-06-22T10:52:30;99241.56;;;25.18;100.00
30554;BME280;17335;50.720;7.452;2023-06-22T10:54:57;99246.94;;;25.13;100.00
30554;BME280;17335;50.720;7.452;2023-06-22T10:57:24;99269.75;;;25.13;100.00
30554;BME280;17335;50.720;7.452;2023-06-22T10:59:50;99274.44;;;24.89;100.00
30554;BME280;17335;50.720;7.452;2023-06-22T11:02:17;99287.69;;;24.68;100.00
30554;BME280;17335;50.720;7.452;2023-06-22T11:04:44;99313.09;;;24.52;100.00
30554;BME280;17335;50.720;7.452;2023-06-22T11:07:10;99337.53;;;24.42;100.00
30554;BME280;17335;50.720;7.452;2023-06-22T11:09:37;99319.69;;;24.09;100.00
30554;BME280;17335;50.720;7.452;2023-06-22T11:12:06;99299.22;;;23.93;100.00
30554;BME280;17335;50.720;7.452;2023-06-22T11:14:33;99292.41;;;23.84;100.00
30554;BME280;17335;50.720;7.452;2023-06-22T11:16:59;99270.16;;;23.73;100.00
30554;BME280;17335;50.720;7.452;2023-06-22T11:19:26;99258.88;;;23.51;100.00
30554;BME280;17335;50.720;7.452;2023-06-22T11:21:53;99288.13;;;23.39;100.00
30554;BME280;17335;50.720;7.452;2023-06-22T11:24:20;99311.22;;;23.31;100.00
30554;BME280;17335;50.720;7.452;2023-06-22T11:26:46;99309.34;;;23.07;100.00
30554;BME280;17335;50.720;7.452;2023-06-22T11:29:13;99297.38;;;22.82;100.00
30554;BME280;17335;50.720;7.452;2023-06-22T11:31:57;99298.75;;;22.48;100.00
30554;BME280;17335;50.720;7.452;2023-06-22T11:34:24;99305.41;;;22.27;100.00
30554;BME280;17335;50.720;7.452;2023-06-22T11:36:51;99288.31;;;22.06;100.00
30554;BME280;17335;50.720;7.452;2023-06-22T11:39:17;99227.28;;;21.49;100.00
30554;BME280;17335;50.720;7.452;2023-06-22T11:41:55;99201.97;;;21.28;100.00
30554;BME280;17335;50.720;7.452;2023-06-22T11:44:21;99218.13;;;21.30;100.00
30554;BME280;17335;50.720;7.452;2023-06-22T11:46:48;99226.03;;;21.51;100.00
30554;BME280;17335;50.720;7.452;2023-06-22T11:49:14;99235.47;;;21.49;100.00
30554;BME280;17335;50.720;7.452;2023-06-22T11:51:41;99234.84;;;21.85;100.00
30554;BME280;17335;50.720;7.452;2023-06-22T11:54:07;99237.72;;;22.47;100.00
30554;BME280;17335;50.720;7.452;2023-06-22T11:56:34;99201.88;;;22.93;100.00
30554;BME280;17335;50.720;7.452;2023-06-22T11:59:00;99170.88;;;23.29;100.00
30554;BME280;17335;50.720;7.452;2023-06-22T12:01:27;99157.56;;;23.75;100.00
30554;BME280;17335;50.720;7.452;2023-06-22T12:03:54;99151.44;;;23.91;100.00
30554;BME280;17335;50.720;7.452;2023-06-22T12:06:20;99149.88;;;23.84;100.00
30554;BME280;17335;50.720;7.452;2023-06-22T12:08:47;99157.31;;;23.65;100.00
30554;BME280;17335;50.720;7.452;2023-06-22T12:11:14;99162.00;;;23.88;100.00
30554;BME280;17335;50.720;7.452;2023-06-22T12:13:40;99153.56;;;23.89;100.00
30554;BME280;17335;50.720;7.452;2023-06-22T12:16:07;99150.13;;;24.06;100.00
30554;BME280;17335;50.720;7.452;2023-06-22T12:18:33;99153.47;;;24.20;100.00
30554;BME280;17335;50.720;7.452;2023-06-22T12:21:00;99129.84;;;24.19;100.00
30554;BME280;17335;50.720;7.452;2023-06-22T12:23:26;99109.34;;;24.33;100.00
30554;BME280;17335;50.720;7.452;2023-06-22T12:25:52;99103.19;;;24.66;100.00
30554;BME280;17335;50.720;7.452;2023-06-22T12:28:19;99092.25;;;24.95;100.00
30554;BME280;17335;50.720;7.452;2023-06-22T12:30:45;99063.38;;;24.64;100.00
30554;BME280;17335;50.720;7.452;2023-06-22T12:33:12;99076.16;;;24.87;100.00
30554;BME280;17335;50.720;7.452;2023-06-22T12:35:39;99067.16;;;24.75;100.00
30554;BME280;17335;50.720;7.452;2023-06-22T12:38:05;99065.97;;;24.70;100.00
30554;BME280;17335;50.720;7.452;2023-06-22T12:40:33;99060.97;;;24.67;100.00
30554;BME280;17335;50.720;7.452;2023-06-22T12:43:00;99040.50;;;24.46;100.00
30554;BME280;17335;50.720;7.452;2023-06-22T12:45:28;99028.41;;;24.59;100.00
30554;BME280;17335;50.720;7.452;2023-06-22T12:47:57;99032.19;;;24.70;100.00
30554;BME280;17335;50.720;7.452;2023-06-22T12:50:24;99020.75;;;24.61;100.00
30554;BME280;17335;50.720;7.452;2023-06-22T12:52:50;99017.47;;;24.36;100.00
30554;BME280;17335;50.720;7.452;2023-06-22T12:55:17;99024.75;;;24.42;100.00
30554;BME280;17335;50.720;7.452;2023-06-22T12:57:44;99013.66;;;24.37;100.00
30554;BME280;17335;50.720;7.452;2023-06-22T13:00:11;98995.59;;;24.52;100.00